Anton, Texas
Current Conditions -  °F | °C
As of 3:53 PM on Saturday 20 Dec 2014 (Local Time) from KLBB Reporting Station
Scattered Clouds Scattered Clouds  
Wind Chill:   Ceiling: Unl
Heat Index:   Visibility: 10mi
Dew Point:   Wind: 13mph
Humidity: 68%   Direction: 170°S
Pressure: 30.02"   Gusts: NA
Location:  33.81°N, 102.16°W
Report Text: KLBB 202153Z 17011KT 10SM SCT019 SCT250 08/03 A3002 RMK AO2 SLP159 T00830028
Loading
Personal Weather Stations






























Interactive Weather Map New forecast layout! Learn more

10-Day Weather Forecast

Advertisements
Track Severe Weather on mobile